Arminto, Wyoming
Current Conditions -  °F | °C
As of 9:53 AM on Thursday 23 Oct 2014 (Local Time) from KCPR Reporting Station
Clear Clear  
Wind Chill: 12°   Ceiling: Unl
Heat Index: 12°   Visibility: 10mi
Dew Point: -7°   Wind: 24mph
Humidity: 27%   Direction: 220°SW
Pressure: 30.09"   Gusts: 30mph
Location:  43.18°N, 107.26°W
Report Text: KCPR 231553Z 22021G26KT 10SM CLR 12/M07 A3009 RMK AO2 PK WND 23026/1551 SLP166 T01171067
Loading
Personal Weather Stations






























Interactive Weather Map New forecast layout! Learn more

10-Day Weather Forecast

Advertisements
Track Severe Weather on mobile